Time;durP1;ratioP1;P1;durP2;ratioP2;P2;SDS_P1;SDS_P2;PMS_P1;PMS_P2;Temp;Humidity;BMP_temperature;BMP_pressure;BME280_temperature;BME280_humidity;BME280_pressure;Samples;Min_cycle;Max_cycle;Signal;HPM_P1;HPM_P2
2023/11/22 00:01:06;;;;;;;4.80;3.53;;;;;;;;;;5091045;28;20206;-85
2023/11/22 00:04:10;;;;;;;2.83;2.40;;;;;;;;;;5103683;28;20532;-85
2023/11/22 00:07:15;;;;;;;2.53;2.10;;;;;;;;;;5089797;28;20179;-85
2023/11/22 00:10:20;;;;;;;2.10;1.77;;;;;;;;;;5089337;28;20210;-85
2023/11/22 00:13:24;;;;;;;3.53;2.13;;;;;;;;;;5078152;28;20179;-84
2023/11/22 00:16:28;;;;;;;2.30;2.00;;;;;;;;;;5077711;28;20187;-85
2023/11/22 00:19:33;;;;;;;1.90;1.60;;;;;;;;;;5089807;28;20635;-85
2023/11/22 00:22:37;;;;;;;4.80;2.27;;;;;;;;;;5089821;28;20171;-85
2023/11/22 00:25:42;;;;;;;3.10;2.10;;;;;;;;;;5067560;28;20179;-85
2023/11/22 00:28:46;;;;;;;5.27;1.87;;;;;;;;;;5090130;28;20174;-85
2023/11/22 00:31:50;;;;;;;2.70;2.40;;;;;;;;;;5099953;28;20218;-86
2023/11/22 00:34:54;;;;;;;2.57;2.20;;;;;;;;;;5066331;28;20183;-85
2023/11/22 00:37:58;;;;;;;5.97;2.23;;;;;;;;;;5088867;28;20179;-85
2023/11/22 00:41:03;;;;;;;3.27;2.80;;;;;;;;;;5077322;28;20207;-84
2023/11/22 00:44:07;;;;;;;3.43;2.53;;;;;;;;;;5088532;28;20182;-85
2023/11/22 00:47:11;;;;;;;3.50;2.73;;;;;;;;;;5077274;28;20194;-85
2023/11/22 00:50:19;;;;;;;2.90;2.60;;;;;;;;;;5100940;28;20706;-84
2023/11/22 00:53:23;;;;;;;3.30;2.87;;;;;;;;;;5088787;28;20179;-85
2023/11/22 00:56:28;;;;;;;3.73;2.80;;;;;;;;;;5089021;28;20525;-85
2023/11/22 00:59:32;;;;;;;3.03;2.43;;;;;;;;;;5087634;28;20175;-85
2023/11/22 01:02:37;;;;;;;2.97;2.67;;;;;;;;;;5088331;28;20216;-84
2023/11/22 01:05:42;;;;;;;3.40;3.07;;;;;;;;;;5088613;28;20179;-85
2023/11/22 01:08:47;;;;;;;4.07;3.00;;;;;;;;;;5101601;28;20178;-85
2023/11/22 01:11:51;;;;;;;4.00;2.67;;;;;;;;;;5089694;28;20564;-85
2023/11/22 01:14:56;;;;;;;3.93;3.10;;;;;;;;;;5100576;28;20178;-85
2023/11/22 01:18:00;;;;;;;3.80;3.00;;;;;;;;;;5089576;28;20186;-85
2023/11/22 01:21:05;;;;;;;3.53;2.80;;;;;;;;;;5076118;28;20218;-85
2023/11/22 01:24:09;;;;;;;4.20;3.37;;;;;;;;;;5100773;28;20178;-85
2023/11/22 01:27:14;;;;;;;4.37;3.17;;;;;;;;;;5100307;28;20516;-85
2023/11/22 01:30:18;;;;;;;4.57;3.30;;;;;;;;;;5087648;28;20210;-85
2023/11/22 01:33:22;;;;;;;3.87;3.40;;;;;;;;;;5087900;28;20207;-85
2023/11/22 01:36:27;;;;;;;4.93;3.27;;;;;;;;;;5085365;28;20174;-86
2023/11/22 01:39:31;;;;;;;4.40;3.27;;;;;;;;;;5085157;28;20528;-86
2023/11/22 01:42:37;;;;;;;5.13;3.47;;;;;;;;;;5073561;28;20635;-85
2023/11/22 01:45:41;;;;;;;4.73;3.60;;;;;;;;;;5072821;28;20182;-85
2023/11/22 01:48:45;;;;;;;4.63;3.47;;;;;;;;;;5097564;28;20180;-86
2023/11/22 01:51:50;;;;;;;5.57;4.00;;;;;;;;;;5061291;28;20218;-86
2023/11/22 01:54:54;;;;;;;5.83;4.23;;;;;;;;;;5095860;28;20175;-86
2023/11/22 01:57:59;;;;;;;7.37;4.80;;;;;;;;;;5072833;28;20183;-85
2023/11/22 02:01:04;;;;;;;5.63;4.50;;;;;;;;;;5084792;28;20214;-85
2023/11/22 02:04:09;;;;;;;5.13;4.03;;;;;;;;;;5084701;28;20171;-86
2023/11/22 02:07:13;;;;;;;9.57;4.80;;;;;;;;;;5084577;28;20178;-85
2023/11/22 02:10:17;;;;;;;8.67;4.67;;;;;;;;;;5071956;28;20214;-85
2023/11/22 02:13:22;;;;;;;5.60;4.07;;;;;;;;;;5060635;28;20210;-85
2023/11/22 02:16:27;;;;;;;6.20;4.20;;;;;;;;;;5083888;28;20632;-85
2023/11/22 02:19:31;;;;;;;6.73;3.80;;;;;;;;;;5073090;28;20635;-85
2023/11/22 02:22:46;;;;;;;4.03;3.10;;;;;;;;;;5096406;28;20175;-85
2023/11/22 02:25:51;;;;;;;2.67;2.30;;;;;;;;;;5083214;28;20179;-85
2023/11/22 02:28:55;;;;;;;2.90;2.60;;;;;;;;;;5083821;28;20175;-86
2023/11/22 02:31:59;;;;;;;3.00;2.70;;;;;;;;;;5072080;28;20224;-85
2023/11/22 02:35:07;;;;;;;3.03;2.30;;;;;;;;;;5095142;28;20179;-85
2023/11/22 02:38:11;;;;;;;4.00;2.57;;;;;;;;;;5073561;28;20175;-86
2023/11/22 02:41:15;;;;;;;4.17;2.50;;;;;;;;;;5076340;28;20552;-86
2023/11/22 02:44:19;;;;;;;3.33;2.87;;;;;;;;;;5075776;28;20639;-85
2023/11/22 02:47:23;;;;;;;6.00;2.67;;;;;;;;;;5086982;28;20178;-85
2023/11/22 02:50:28;;;;;;;3.90;2.87;;;;;;;;;;5086707;28;20210;-86
2023/11/22 02:53:32;;;;;;;3.40;2.43;;;;;;;;;;5064306;28;20228;-86
2023/11/22 02:56:36;;;;;;;3.80;2.87;;;;;;;;;;5075811;28;20175;-86
2023/11/22 02:59:44;;;;;;;4.67;2.90;;;;;;;;;;5075337;28;20183;-85
2023/11/22 03:02:53;;;;;;;3.10;2.50;;;;;;;;;;5099622;28;20175;-85
2023/11/22 03:05:57;;;;;;;3.67;2.67;;;;;;;;;;5075209;28;20183;-86
2023/11/22 03:09:02;;;;;;;3.77;2.40;;;;;;;;;;5087092;28;20179;-85
2023/11/22 03:12:06;;;;;;;2.60;2.40;;;;;;;;;;5086011;28;20216;-85
2023/11/22 03:15:11;;;;;;;3.00;2.27;;;;;;;;;;5074758;28;20179;-86
2023/11/22 03:18:16;;;;;;;3.73;2.83;;;;;;;;;;5098796;28;20178;-86
2023/11/22 03:21:20;;;;;;;2.97;2.57;;;;;;;;;;5087130;28;20226;-85
2023/11/22 03:24:25;;;;;;;4.77;2.30;;;;;;;;;;5088623;28;20201;-85
2023/11/22 03:27:29;;;;;;;4.50;2.43;;;;;;;;;;5100418;28;20198;-86
2023/11/22 03:30:33;;;;;;;3.87;2.27;;;;;;;;;;5087833;28;20218;-86
2023/11/22 03:33:38;;;;;;;4.73;1.70;;;;;;;;;;5099032;28;20207;-85
2023/11/22 03:36:42;;;;;;;3.30;2.03;;;;;;;;;;5087831;28;20179;-85
2023/11/22 03:39:48;;;;;;;1.47;1.37;;;;;;;;;;5087380;28;20179;-86
2023/11/22 03:42:52;;;;;;;2.03;1.70;;;;;;;;;;5077084;28;20171;-86
2023/11/22 03:45:56;;;;;;;5.00;1.60;;;;;;;;;;5099389;28;20183;-86
2023/11/22 03:49:00;;;;;;;2.03;1.67;;;;;;;;;;5086622;28;20179;-86
2023/11/22 03:52:05;;;;;;;2.07;1.70;;;;;;;;;;5087718;28;20214;-85
2023/11/22 03:55:10;;;;;;;2.07;1.57;;;;;;;;;;5087587;28;20183;-86
2023/11/22 03:58:14;;;;;;;1.90;1.60;;;;;;;;;;5087506;28;20647;-86
2023/11/22 04:01:19;;;;;;;1.90;1.40;;;;;;;;;;5099734;28;20207;-85
2023/11/22 04:04:23;;;;;;;1.50;1.37;;;;;;;;;;5099551;28;20171;-86
2023/11/22 04:07:28;;;;;;;1.70;1.60;;;;;;;;;;5087874;28;20178;-85
2023/11/22 04:10:32;;;;;;;2.53;1.77;;;;;;;;;;5064124;28;20210;-86
2023/11/22 04:13:37;;;;;;;2.03;1.67;;;;;;;;;;5087113;28;20683;-85
2023/11/22 04:16:41;;;;;;;2.57;1.90;;;;;;;;;;5086973;28;20524;-85
2023/11/22 04:19:45;;;;;;;2.10;1.90;;;;;;;;;;5087287;28;20186;-85
2023/11/22 04:22:50;;;;;;;3.00;2.53;;;;;;;;;;5064655;28;20179;-85
2023/11/22 04:25:55;;;;;;;2.87;2.47;;;;;;;;;;5098553;28;20179;-85
2023/11/22 04:28:59;;;;;;;2.47;2.23;;;;;;;;;;5086764;28;20175;-85
2023/11/22 04:32:03;;;;;;;3.33;2.60;;;;;;;;;;5086285;28;20214;-85
2023/11/22 04:35:09;;;;;;;3.53;2.10;;;;;;;;;;5085204;28;20643;-85
2023/11/22 04:38:13;;;;;;;2.80;2.37;;;;;;;;;;5073827;28;20179;-85
2023/11/22 04:41:18;;;;;;;3.07;2.10;;;;;;;;;;5097255;28;20214;-85
2023/11/22 04:44:22;;;;;;;5.07;2.50;;;;;;;;;;5098205;28;20175;-85
2023/11/22 04:47:26;;;;;;;3.03;2.30;;;;;;;;;;5085488;28;20678;-85
2023/11/22 04:50:30;;;;;;;3.20;2.47;;;;;;;;;;5097445;28;20220;-85
2023/11/22 04:53:34;;;;;;;5.23;2.13;;;;;;;;;;5096921;28;20206;-85
2023/11/22 04:56:38;;;;;;;3.53;2.57;;;;;;;;;;5097751;28;20175;-86
2023/11/22 04:59:43;;;;;;;7.53;2.37;;;;;;;;;;5097076;28;20174;-84
2023/11/22 05:02:46;;;;;;;2.73;2.40;;;;;;;;;;5084773;28;20520;-85
2023/11/22 05:05:50;;;;;;;2.60;2.40;;;;;;;;;;5084688;28;20179;-85
2023/11/22 05:08:55;;;;;;;3.37;2.90;;;;;;;;;;5084811;28;20635;-85
2023/11/22 05:11:59;;;;;;;4.17;2.57;;;;;;;;;;5097236;28;20240;-86
2023/11/22 05:15:04;;;;;;;3.20;2.43;;;;;;;;;;5073288;28;20175;-86
2023/11/22 05:18:09;;;;;;;2.87;2.57;;;;;;;;;;5084550;28;20179;-85
2023/11/22 05:21:13;;;;;;;2.90;2.47;;;;;;;;;;5096964;28;20226;-85
2023/11/22 05:24:18;;;;;;;2.77;2.50;;;;;;;;;;5097978;28;20170;-85
2023/11/22 05:27:22;;;;;;;4.27;3.33;;;;;;;;;;5097061;28;20179;-85
2023/11/22 05:30:26;;;;;;;4.17;2.77;;;;;;;;;;5084349;28;20214;-85
2023/11/22 05:33:32;;;;;;;3.60;3.13;;;;;;;;;;5096984;28;20206;-85
2023/11/22 05:36:36;;;;;;;4.40;3.73;;;;;;;;;;5084964;28;20175;-85
2023/11/22 05:39:40;;;;;;;3.47;2.83;;;;;;;;;;5096798;28;20635;-85
2023/11/22 05:42:45;;;;;;;4.37;3.23;;;;;;;;;;5096252;28;20174;-85
2023/11/22 05:45:49;;;;;;;4.73;3.30;;;;;;;;;;5073159;28;20183;-85
2023/11/22 05:48:54;;;;;;;4.77;3.63;;;;;;;;;;5084095;28;20632;-85
2023/11/22 05:51:58;;;;;;;3.83;3.27;;;;;;;;;;5072993;28;20216;-85
2023/11/22 05:55:03;;;;;;;3.63;3.20;;;;;;;;;;5084078;28;20171;-85
2023/11/22 05:58:08;;;;;;;4.47;3.40;;;;;;;;;;5083406;28;20547;-85
2023/11/22 06:01:12;;;;;;;5.23;3.70;;;;;;;;;;5072065;28;20210;-85
2023/11/22 06:04:16;;;;;;;3.57;2.80;;;;;;;;;;5060833;28;20175;-87
2023/11/22 06:07:20;;;;;;;4.23;3.00;;;;;;;;;;5083381;28;20178;-85
2023/11/22 06:10:24;;;;;;;3.77;3.30;;;;;;;;;;5084039;28;20210;-87
2023/11/22 06:13:29;;;;;;;3.60;3.10;;;;;;;;;;5097525;28;20666;-86
2023/11/22 06:16:33;;;;;;;4.47;3.03;;;;;;;;;;5088437;28;20187;-84
2023/11/22 06:19:37;;;;;;;4.10;3.23;;;;;;;;;;5065543;28;20179;-85
2023/11/22 06:22:42;;;;;;;3.57;2.77;;;;;;;;;;5077140;28;20178;-84
2023/11/22 06:25:46;;;;;;;4.17;3.20;;;;;;;;;;5088445;28;20175;-84
2023/11/22 06:28:50;;;;;;;3.33;3.03;;;;;;;;;;5100489;28;20175;-84
2023/11/22 06:31:55;;;;;;;3.50;2.83;;;;;;;;;;5101756;28;20218;-85
2023/11/22 06:34:58;;;;;;;3.63;2.60;;;;;;;;;;5102103;28;20215;-85
2023/11/22 06:38:03;;;;;;;3.83;2.50;;;;;;;;;;5089214;28;20179;-85
2023/11/22 06:41:07;;;;;;;3.23;2.60;;;;;;;;;;5088824;28;20694;-85
2023/11/22 06:44:11;;;;;;;4.00;2.80;;;;;;;;;;5077381;28;20171;-85
2023/11/22 06:47:16;;;;;;;3.53;2.97;;;;;;;;;;5102004;28;20179;-85
2023/11/22 06:50:20;;;;;;;2.60;2.40;;;;;;;;;;5077126;28;20210;-85
2023/11/22 06:53:25;;;;;;;3.83;3.03;;;;;;;;;;5102441;28;20582;-85
2023/11/22 06:56:29;;;;;;;3.97;2.83;;;;;;;;;;5102734;28;20183;-85
2023/11/22 06:59:33;;;;;;;4.00;2.80;;;;;;;;;;5088951;28;20179;-85
2023/11/22 07:02:38;;;;;;;3.90;3.13;;;;;;;;;;5099160;28;20174;-87
2023/11/22 07:05:42;;;;;;;3.43;2.90;;;;;;;;;;5086948;28;20170;-87
2023/11/22 07:08:46;;;;;;;4.33;2.60;;;;;;;;;;5087195;28;20171;-85
2023/11/22 07:11:51;;;;;;;3.10;2.60;;;;;;;;;;5100347;28;20222;-85
2023/11/22 07:14:55;;;;;;;5.97;2.50;;;;;;;;;;5073730;28;20198;-85
2023/11/22 07:18:00;;;;;;;3.30;2.60;;;;;;;;;;5084867;28;20183;-84
2023/11/22 07:21:05;;;;;;;3.60;2.47;;;;;;;;;;5084633;28;20218;-84
2023/11/22 07:24:13;;;;;;;3.67;2.60;;;;;;;;;;5100692;28;20175;-85
2023/11/22 07:27:18;;;;;;;3.43;2.70;;;;;;;;;;5086800;28;20516;-84
2023/11/22 07:30:29;;;;;;;3.27;2.33;;;;;;;;;;5086831;28;20214;-85
2023/11/22 07:33:33;;;;;;;3.03;2.70;;;;;;;;;;5096893;28;20202;-86
2023/11/22 07:36:38;;;;;;;3.10;2.10;;;;;;;;;;5074418;28;20182;-86
2023/11/22 07:39:43;;;;;;;4.43;2.90;;;;;;;;;;5097960;28;20627;-85
2023/11/22 07:42:47;;;;;;;3.63;2.60;;;;;;;;;;5098051;28;20543;-86
2023/11/22 07:45:52;;;;;;;3.07;2.50;;;;;;;;;;5085933;28;20174;-85
2023/11/22 07:48:56;;;;;;;3.73;2.67;;;;;;;;;;5085983;28;20175;-85
2023/11/22 07:52:00;;;;;;;3.57;2.53;;;;;;;;;;5086328;28;20210;-85
2023/11/22 07:55:07;;;;;;;6.40;2.70;;;;;;;;;;5098887;28;20210;-85
2023/11/22 07:58:12;;;;;;;2.93;2.50;;;;;;;;;;5086222;28;20183;-85
2023/11/22 08:01:16;;;;;;;3.57;2.50;;;;;;;;;;5074234;28;20682;-85
2023/11/22 08:04:20;;;;;;;3.57;2.90;;;;;;;;;;5099095;28;20167;-85
2023/11/22 08:07:24;;;;;;;3.17;2.70;;;;;;;;;;5074276;28;20171;-85
2023/11/22 08:10:28;;;;;;;2.80;2.50;;;;;;;;;;5072881;28;20210;-86
2023/11/22 08:13:32;;;;;;;3.47;2.97;;;;;;;;;;5073187;28;20210;-85
2023/11/22 08:16:38;;;;;;;3.83;2.90;;;;;;;;;;5097933;28;20178;-85
2023/11/22 08:19:42;;;;;;;3.23;2.80;;;;;;;;;;5097058;28;20627;-86
2023/11/22 08:22:49;;;;;;;4.67;3.20;;;;;;;;;;5096151;28;20179;-86
2023/11/22 08:25:54;;;;;;;4.20;3.30;;;;;;;;;;5060768;28;20171;-86
2023/11/22 08:28:58;;;;;;;4.50;3.53;;;;;;;;;;5083037;28;20174;-86
2023/11/22 08:32:16;;;;;;;4.70;3.50;;;;;;;;;;5095239;28;20222;-86
2023/11/22 08:35:24;;;;;;;5.17;3.53;;;;;;;;;;5071266;28;20202;-86
2023/11/22 08:38:28;;;;;;;4.00;3.60;;;;;;;;;;5071297;28;20179;-86
2023/11/22 08:41:33;;;;;;;5.83;3.63;;;;;;;;;;5095311;28;20210;-86
2023/11/22 08:44:37;;;;;;;3.93;3.50;;;;;;;;;;5082926;28;20177;-86
2023/11/22 08:47:42;;;;;;;4.40;3.57;;;;;;;;;;5095122;28;20179;-86
2023/11/22 08:50:48;;;;;;;4.00;3.47;;;;;;;;;;5085407;28;20214;-85
2023/11/22 08:53:52;;;;;;;4.17;3.30;;;;;;;;;;5097867;28;20211;-86
2023/11/22 08:56:57;;;;;;;3.50;3.20;;;;;;;;;;5082909;28;20543;-85
2023/11/22 09:00:06;;;;;;;5.27;3.43;;;;;;;;;;5082690;28;20171;-86
2023/11/22 09:03:13;;;;;;;4.20;3.33;;;;;;;;;;5082692;28;20178;-86
2023/11/22 09:06:18;;;;;;;4.50;3.47;;;;;;;;;;5083032;28;20175;-86
2023/11/22 09:09:30;;;;;;;4.37;3.37;;;;;;;;;;5095469;28;20183;-86
2023/11/22 09:21:41;;;;;;;4.73;3.57;;;;;;;;;;5093886;28;20223;-85
2023/11/22 09:24:45;;;;;;;4.40;3.20;;;;;;;;;;5084759;28;20569;-85
2023/11/22 09:27:58;;;;;;;5.13;3.27;;;;;;;;;;5085027;28;20182;-86
2023/11/22 09:31:06;;;;;;;3.87;3.23;;;;;;;;;;5084436;28;20214;-85
2023/11/22 09:34:10;;;;;;;4.87;3.03;;;;;;;;;;5084942;28;20210;-85
2023/11/22 09:37:14;;;;;;;3.87;3.47;;;;;;;;;;5073260;28;20187;-85
2023/11/22 09:40:18;;;;;;;4.40;3.30;;;;;;;;;;5084491;28;20219;-85
2023/11/22 09:43:24;;;;;;;5.50;3.20;;;;;;;;;;5096902;28;20627;-85
2023/11/22 09:46:30;;;;;;;5.50;3.23;;;;;;;;;;5084276;28;20643;-85
2023/11/22 09:49:37;;;;;;;5.57;3.37;;;;;;;;;;5084449;28;20179;-86
2023/11/22 09:52:43;;;;;;;3.70;3.17;;;;;;;;;;5097137;28;20178;-85
2023/11/22 09:55:48;;;;;;;4.17;3.33;;;;;;;;;;5084795;28;20199;-85
2023/11/22 09:58:55;;;;;;;4.53;3.70;;;;;;;;;;5084503;28;20182;-85
2023/11/22 10:02:00;;;;;;;4.13;2.97;;;;;;;;;;5073244;28;20694;-85
2023/11/22 10:05:04;;;;;;;4.03;3.43;;;;;;;;;;5084489;28;20638;-86
2023/11/22 10:08:09;;;;;;;3.90;3.33;;;;;;;;;;5096538;28;20182;-85
2023/11/22 10:11:17;;;;;;;4.43;3.67;;;;;;;;;;5072973;28;20214;-85
2023/11/22 10:14:25;;;;;;;4.47;3.50;;;;;;;;;;5096669;28;20198;-85
2023/11/22 10:17:29;;;;;;;4.97;3.30;;;;;;;;;;5084554;28;20187;-85
2023/11/22 10:20:39;;;;;;;6.10;3.57;;;;;;;;;;5083775;28;20214;-85
2023/11/22 10:23:44;;;;;;;5.60;3.70;;;;;;;;;;5084451;28;20183;-85
2023/11/22 10:26:51;;;;;;;6.50;3.93;;;;;;;;;;5084358;28;20543;-85
2023/11/22 10:29:55;;;;;;;4.57;3.73;;;;;;;;;;5096300;28;20183;-85
2023/11/22 10:32:59;;;;;;;5.10;3.43;;;;;;;;;;5084505;28;20187;-85
2023/11/22 10:36:04;;;;;;;4.20;3.53;;;;;;;;;;5083723;28;20199;-85
2023/11/22 10:39:09;;;;;;;6.23;4.50;;;;;;;;;;5072825;28;20643;-85
2023/11/22 10:42:14;;;;;;;5.70;3.97;;;;;;;;;;5083902;28;20175;-85
2023/11/22 10:45:19;;;;;;;4.77;3.30;;;;;;;;;;5084533;28;20170;-85
2023/11/22 10:48:24;;;;;;;5.37;4.10;;;;;;;;;;5084055;28;20547;-85
2023/11/22 10:51:33;;;;;;;5.83;4.23;;;;;;;;;;5060827;28;20211;-85
2023/11/22 10:54:44;;;;;;;33.50;15.33;;;;;;;;;;5072398;28;20199;-85
2023/11/22 10:57:51;;;;;;;6.57;4.73;;;;;;;;;;5084119;28;20183;-85
2023/11/22 11:00:56;;;;;;;4.83;3.83;;;;;;;;;;5086945;28;20218;-85
2023/11/22 11:04:35;;;;;;;4.67;4.20;;;;;;;;;;5099581;28;20179;-85
2023/11/22 11:07:43;;;;;;;5.50;3.73;;;;;;;;;;5086619;28;20179;-86
2023/11/22 11:10:49;;;;;;;4.77;3.73;;;;;;;;;;5087073;28;20640;-86
2023/11/22 11:13:53;;;;;;;4.83;3.73;;;;;;;;;;5086922;28;20183;-86
2023/11/22 11:16:58;;;;;;;4.43;4.00;;;;;;;;;;5099569;28;20177;-85
2023/11/22 11:20:11;;;;;;;4.47;3.40;;;;;;;;;;5073753;28;20202;-84
2023/11/22 11:23:25;;;;;;;4.90;3.67;;;;;;;;;;5085728;28;20179;-85
2023/11/22 11:26:34;;;;;;;4.77;2.90;;;;;;;;;;5086194;28;20283;-85
2023/11/22 11:29:42;;;;;;;3.40;2.70;;;;;;;;;;5085719;28;20186;-84
2023/11/22 11:32:46;;;;;;;5.60;3.30;;;;;;;;;;5085847;28;20170;-85
2023/11/22 11:35:52;;;;;;;4.80;3.50;;;;;;;;;;5085776;28;20551;-85
2023/11/22 11:38:57;;;;;;;5.13;3.77;;;;;;;;;;5085400;28;20182;-85
2023/11/22 11:42:09;;;;;;;4.17;3.50;;;;;;;;;;5097940;28;20214;-85
2023/11/22 11:45:15;;;;;;;4.13;3.30;;;;;;;;;;5074378;28;20171;-84
2023/11/22 11:48:20;;;;;;;6.07;4.50;;;;;;;;;;5074006;28;20175;-85
2023/11/22 11:51:28;;;;;;;4.90;3.83;;;;;;;;;;5085099;28;20214;-85
2023/11/22 11:54:32;;;;;;;3.50;3.20;;;;;;;;;;5085160;28;20183;-85
2023/11/22 11:57:37;;;;;;;4.53;3.53;;;;;;;;;;5074098;28;20183;-85
2023/11/22 12:00:40;;;;;;;4.97;3.80;;;;;;;;;;5097251;28;20214;-85
2023/11/22 12:03:45;;;;;;;5.43;3.93;;;;;;;;;;5073601;28;20175;-84
2023/11/22 12:06:51;;;;;;;4.73;3.87;;;;;;;;;;5062381;28;20171;-85
2023/11/22 12:20:21;;;;;;;4.20;3.30;;;;;;;;;;5117382;28;20714;-85
2023/11/22 12:23:29;;;;;;;4.77;3.43;;;;;;;;;;5106117;28;20174;-86
2023/11/22 12:26:34;;;;;;;6.27;4.93;;;;;;;;;;5106157;28;20627;-85
2023/11/22 12:29:41;;;;;;;5.93;4.33;;;;;;;;;;5106182;28;20183;-85
2023/11/22 12:32:46;;;;;;;5.50;3.97;;;;;;;;;;5118374;28;20178;-85
2023/11/22 12:35:49;;;;;;;6.37;3.50;;;;;;;;;;5118837;28;20224;-86
2023/11/22 12:38:57;;;;;;;3.87;3.20;;;;;;;;;;5094230;28;20174;-86
2023/11/22 12:42:03;;;;;;;4.63;3.60;;;;;;;;;;5082431;28;20206;-85
2023/11/22 12:45:18;;;;;;;5.30;3.80;;;;;;;;;;5104999;28;20174;-86
2023/11/22 12:48:24;;;;;;;5.17;4.20;;;;;;;;;;5116986;28;20179;-85
2023/11/22 13:35:45;;;;;;;4.13;3.43;;;;;;;;;;5094663;28;20683;-84
2023/11/22 14:56:34;;;;;;;7.77;5.33;;;;;;;;;;4976887;28;20235;-86
2023/11/22 14:59:39;;;;;;;7.83;5.10;;;;;;;;;;4976932;28;20179;-86
2023/11/22 15:15:14;;;;;;;10.00;7.77;;;;;;;;;;5157197;22;20237;-83
2023/11/22 15:18:18;;;;;;;9.63;7.73;;;;;;;;;;5018867;28;20177;-85
2023/11/22 15:21:22;;;;;;;8.50;6.40;;;;;;;;;;5005760;28;20213;-86
2023/11/22 15:28:39;;;;;;;6.80;4.60;;;;;;;;;;4987523;28;20191;-85
2023/11/22 15:32:06;;;;;;;10.57;6.60;;;;;;;;;;4981401;28;20183;-83
2023/11/22 15:37:13;;;;;;;6.93;5.73;;;;;;;;;;4968164;29;20200;-83
2023/11/22 15:40:39;;;;;;;7.23;5.17;;;;;;;;;;4972220;29;20175;-81
2023/11/22 15:43:47;;;;;;;6.87;5.43;;;;;;;;;;4972458;29;20211;-83
2023/11/22 15:46:51;;;;;;;6.60;5.20;;;;;;;;;;4962681;29;20168;-82
2023/11/22 15:49:56;;;;;;;7.30;5.50;;;;;;;;;;4963667;29;20184;-82
2023/11/22 15:53:01;;;;;;;8.00;5.70;;;;;;;;;;4974831;29;20195;-82
2023/11/22 15:56:07;;;;;;;8.10;5.90;;;;;;;;;;4973753;28;20572;-82
2023/11/22 15:59:12;;;;;;;7.73;5.40;;;;;;;;;;4962619;29;20183;-83
2023/11/22 16:02:16;;;;;;;6.07;4.77;;;;;;;;;;4973774;29;20187;-83
2023/11/22 16:05:22;;;;;;;6.67;5.17;;;;;;;;;;4961845;29;20184;-83
2023/11/22 16:08:26;;;;;;;10.30;7.73;;;;;;;;;;4960598;29;20171;-83
2023/11/22 16:11:32;;;;;;;12.20;10.33;;;;;;;;;;4971209;29;20188;-83
2023/11/22 16:14:37;;;;;;;8.93;8.00;;;;;;;;;;4960100;29;20219;-83
2023/11/22 16:17:42;;;;;;;9.80;8.80;;;;;;;;;;4970978;29;20211;-83
2023/11/22 16:20:46;;;;;;;10.97;7.93;;;;;;;;;;4961363;29;20167;-83
2023/11/22 16:23:50;;;;;;;9.27;6.63;;;;;;;;;;4974022;29;20706;-82
2023/11/22 16:26:55;;;;;;;8.67;6.20;;;;;;;;;;4962915;29;20596;-82
2023/11/22 16:30:00;;;;;;;8.23;7.10;;;;;;;;;;4957859;29;20188;-84
2023/11/22 16:33:04;;;;;;;7.23;5.77;;;;;;;;;;4957107;29;20219;-84
2023/11/22 16:36:08;;;;;;;8.67;5.67;;;;;;;;;;4958066;29;20676;-85
2023/11/22 16:39:14;;;;;;;8.63;6.07;;;;;;;;;;4957866;29;20179;-84
2023/11/22 16:42:20;;;;;;;8.03;5.87;;;;;;;;;;4958375;29;20180;-85
2023/11/22 16:45:27;;;;;;;7.27;5.53;;;;;;;;;;4957431;29;20677;-85
2023/11/22 16:48:31;;;;;;;7.80;5.83;;;;;;;;;;4957145;29;20183;-84
2023/11/22 16:51:35;;;;;;;7.53;5.70;;;;;;;;;;4946845;29;20187;-84
2023/11/22 16:54:41;;;;;;;8.50;5.90;;;;;;;;;;4958434;29;20215;-85
2023/11/22 16:57:45;;;;;;;10.07;6.10;;;;;;;;;;4945409;29;20684;-86
2023/11/22 17:00:51;;;;;;;7.30;5.73;;;;;;;;;;4946009;29;20183;-86
2023/11/22 17:03:54;;;;;;;9.33;6.30;;;;;;;;;;4960801;29;20223;-83
2023/11/22 17:06:59;;;;;;;7.03;5.33;;;;;;;;;;4962260;29;20538;-84
2023/11/22 17:10:05;;;;;;;10.23;6.60;;;;;;;;;;4963317;29;20553;-83
2023/11/22 17:13:11;;;;;;;9.83;6.93;;;;;;;;;;4963597;29;20215;-85
2023/11/22 17:16:15;;;;;;;10.23;6.37;;;;;;;;;;4961344;29;20215;-83
2023/11/22 17:19:20;;;;;;;9.07;6.37;;;;;;;;;;4962831;29;20183;-83
2023/11/22 17:22:27;;;;;;;7.13;5.67;;;;;;;;;;4961987;29;20545;-83
2023/11/22 17:25:31;;;;;;;8.27;6.10;;;;;;;;;;4961946;29;20211;-84
2023/11/22 17:28:35;;;;;;;8.90;5.83;;;;;;;;;;4963164;29;20188;-82
2023/11/22 17:31:39;;;;;;;8.73;6.27;;;;;;;;;;4962869;29;20188;-83
2023/11/22 17:34:44;;;;;;;9.03;6.00;;;;;;;;;;4963291;29;20215;-84
2023/11/22 17:37:53;;;;;;;8.63;6.10;;;;;;;;;;4965037;29;20203;-84
2023/11/22 17:40:59;;;;;;;8.93;6.20;;;;;;;;;;4965519;29;20188;-85
2023/11/22 17:44:04;;;;;;;8.80;5.93;;;;;;;;;;4953658;29;20616;-84
2023/11/22 17:47:09;;;;;;;9.50;6.20;;;;;;;;;;4953748;29;20176;-83
2023/11/22 17:50:16;;;;;;;8.20;6.27;;;;;;;;;;4948299;29;20552;-83
2023/11/22 17:53:23;;;;;;;8.17;6.10;;;;;;;;;;4959518;29;20219;-83
2023/11/22 17:56:27;;;;;;;7.67;5.80;;;;;;;;;;4960443;29;20211;-83
2023/11/22 17:59:31;;;;;;;9.43;7.03;;;;;;;;;;4960200;29;20541;-83
2023/11/22 18:02:38;;;;;;;8.73;6.70;;;;;;;;;;4951182;29;20709;-83
2023/11/22 18:05:43;;;;;;;8.13;5.93;;;;;;;;;;4967111;29;20184;-85
2023/11/22 18:08:48;;;;;;;11.43;7.33;;;;;;;;;;4965023;28;20179;-84
2023/11/22 18:11:53;;;;;;;23.57;11.63;;;;;;;;;;4969145;29;20184;-84
2023/11/22 18:14:57;;;;;;;12.73;8.60;;;;;;;;;;4956195;29;20175;-83
2023/11/22 18:18:01;;;;;;;10.27;7.63;;;;;;;;;;4963095;29;20207;-84
2023/11/22 18:21:05;;;;;;;9.20;6.87;;;;;;;;;;4962508;29;20183;-84
2023/11/22 18:24:10;;;;;;;9.10;6.83;;;;;;;;;;4964437;29;20215;-83
2023/11/22 18:27:14;;;;;;;11.73;6.60;;;;;;;;;;4960645;29;20199;-81
2023/11/22 18:30:18;;;;;;;8.03;6.10;;;;;;;;;;4949417;29;20637;-82
2023/11/22 18:33:22;;;;;;;8.10;6.07;;;;;;;;;;4961182;29;20219;-81
2023/11/22 18:36:27;;;;;;;8.37;6.00;;;;;;;;;;4961494;29;20653;-82
2023/11/22 18:39:32;;;;;;;10.07;6.70;;;;;;;;;;4948982;29;20188;-84
2023/11/22 18:42:36;;;;;;;8.03;6.10;;;;;;;;;;4959679;29;20184;-84
2023/11/22 18:45:41;;;;;;;10.93;6.67;;;;;;;;;;4959424;29;20180;-85
2023/11/22 18:48:45;;;;;;;8.53;7.00;;;;;;;;;;4959597;29;20187;-85
2023/11/22 18:51:51;;;;;;;16.77;10.83;;;;;;;;;;4948413;29;20179;-85
2023/11/22 18:54:55;;;;;;;11.17;8.20;;;;;;;;;;4948603;29;20187;-84
2023/11/22 18:57:59;;;;;;;11.83;7.50;;;;;;;;;;4960515;29;20215;-86
2023/11/22 19:01:04;;;;;;;10.63;6.67;;;;;;;;;;4948624;29;20183;-85
2023/11/22 19:04:08;;;;;;;8.77;6.53;;;;;;;;;;4960531;29;20223;-84
2023/11/22 19:07:12;;;;;;;8.50;6.87;;;;;;;;;;4948200;29;20172;-82
2023/11/22 19:10:17;;;;;;;9.90;7.57;;;;;;;;;;4959017;29;20620;-85
2023/11/22 19:13:22;;;;;;;10.77;7.60;;;;;;;;;;4959381;28;20215;-85
2023/11/22 19:16:27;;;;;;;10.53;8.00;;;;;;;;;;4947790;29;20180;-84
2023/11/22 19:19:31;;;;;;;9.63;6.97;;;;;;;;;;4958542;28;20184;-85
2023/11/22 19:22:36;;;;;;;8.93;6.60;;;;;;;;;;4947877;29;20594;-84
2023/11/22 19:25:40;;;;;;;10.10;7.17;;;;;;;;;;4947990;29;20203;-85
2023/11/22 19:28:45;;;;;;;10.03;6.90;;;;;;;;;;4959584;29;20184;-84
2023/11/22 19:31:49;;;;;;;9.17;7.13;;;;;;;;;;4960022;29;20179;-84
2023/11/22 19:34:53;;;;;;;8.83;7.10;;;;;;;;;;4959158;29;20211;-86
2023/11/22 19:37:58;;;;;;;9.77;7.37;;;;;;;;;;4947934;29;20213;-84
2023/11/22 19:41:02;;;;;;;10.03;7.17;;;;;;;;;;4959291;29;20188;-85
2023/11/22 19:44:07;;;;;;;9.27;6.43;;;;;;;;;;4959095;29;20211;-84
2023/11/22 19:47:11;;;;;;;12.10;8.40;;;;;;;;;;4948170;29;20637;-84
2023/11/22 19:50:17;;;;;;;11.20;7.43;;;;;;;;;;4959222;28;20183;-84
2023/11/22 19:53:22;;;;;;;9.37;7.00;;;;;;;;;;4947761;29;20708;-84
2023/11/22 19:56:26;;;;;;;11.03;7.63;;;;;;;;;;4957958;29;20188;-84
2023/11/22 19:59:32;;;;;;;10.63;7.43;;;;;;;;;;4947625;29;20192;-84
2023/11/22 20:02:36;;;;;;;9.97;6.83;;;;;;;;;;4958926;29;20183;-85
2023/11/22 20:05:42;;;;;;;10.47;7.17;;;;;;;;;;4959294;29;20183;-85
2023/11/22 20:08:47;;;;;;;9.53;6.50;;;;;;;;;;4947396;29;20538;-85
2023/11/22 20:11:51;;;;;;;9.67;7.07;;;;;;;;;;4958414;29;20183;-84
2023/11/22 20:14:55;;;;;;;9.93;6.83;;;;;;;;;;4958004;29;20549;-85
2023/11/22 20:18:00;;;;;;;11.70;7.30;;;;;;;;;;4947351;29;20215;-86
2023/11/22 20:21:04;;;;;;;10.47;7.43;;;;;;;;;;4958172;29;20529;-85
2023/11/22 20:24:09;;;;;;;11.17;7.50;;;;;;;;;;4959318;29;20215;-85
2023/11/22 20:27:13;;;;;;;9.80;7.30;;;;;;;;;;4959868;28;20195;-85
2023/11/22 20:30:18;;;;;;;12.63;7.73;;;;;;;;;;4960034;29;20181;-86
2023/11/22 20:33:22;;;;;;;10.30;7.33;;;;;;;;;;4958174;29;20219;-84
2023/11/22 20:36:26;;;;;;;11.00;7.83;;;;;;;;;;4959875;29;20183;-84
2023/11/22 20:39:31;;;;;;;10.83;8.17;;;;;;;;;;4960448;29;20176;-85
2023/11/22 20:42:35;;;;;;;11.47;8.23;;;;;;;;;;4947358;29;20188;-84
2023/11/22 20:45:39;;;;;;;11.30;7.63;;;;;;;;;;4958555;29;20522;-85
2023/11/22 20:48:43;;;;;;;12.83;8.70;;;;;;;;;;4959858;29;20633;-86
2023/11/22 20:51:48;;;;;;;11.67;7.53;;;;;;;;;;4959254;29;20180;-85
2023/11/22 20:54:53;;;;;;;12.60;9.03;;;;;;;;;;4958889;29;20219;-85
2023/11/22 20:57:57;;;;;;;14.80;9.33;;;;;;;;;;4958558;29;20700;-86
2023/11/22 21:01:02;;;;;;;11.40;8.37;;;;;;;;;;4958527;29;20530;-84
2023/11/22 21:04:06;;;;;;;13.07;9.10;;;;;;;;;;4947702;29;20223;-84
2023/11/22 21:07:11;;;;;;;12.80;8.90;;;;;;;;;;4959442;29;20187;-86